sensor_id;sensor_type;location;lat;lon;timestamp;P1;durP1;ratioP1;P2;durP2;ratioP2
55545;SDS011;44768;50.298;127.520;2023-02-11T00:00:57;6.85;;;3.60;;
55545;SDS011;44768;50.298;127.520;2023-02-11T00:05:59;12.25;;;3.67;;
55545;SDS011;44768;50.298;127.520;2023-02-11T00:11:01;9.35;;;3.90;;
55545;SDS011;44768;50.298;127.520;2023-02-11T00:16:06;9.27;;;3.50;;
55545;SDS011;44768;50.298;127.520;2023-02-11T00:21:08;14.45;;;3.78;;
55545;SDS011;44768;50.298;127.520;2023-02-11T00:26:13;9.27;;;3.50;;
55545;SDS011;44768;50.298;127.520;2023-02-11T00:36:43;9.65;;;4.20;;
55545;SDS011;44768;50.298;127.520;2023-02-11T00:41:44;22.05;;;3.50;;
55545;SDS011;44768;50.298;127.520;2023-02-11T00:46:45;21.58;;;3.90;;
55545;SDS011;44768;50.298;127.520;2023-02-11T00:51:46;9.98;;;3.65;;
55545;SDS011;44768;50.298;127.520;2023-02-11T00:56:48;11.52;;;4.03;;
55545;SDS011;44768;50.298;127.520;2023-02-11T01:01:49;13.02;;;3.60;;
55545;SDS011;44768;50.298;127.520;2023-02-11T01:06:50;10.65;;;3.88;;
55545;SDS011;44768;50.298;127.520;2023-02-11T01:11:52;15.73;;;4.10;;
55545;SDS011;44768;50.298;127.520;2023-02-11T01:16:53;30.13;;;5.72;;
55545;SDS011;44768;50.298;127.520;2023-02-11T01:21:54;73.90;;;14.13;;
55545;SDS011;44768;50.298;127.520;2023-02-11T01:26:56;115.15;;;26.02;;
55545;SDS011;44768;50.298;127.520;2023-02-11T01:31:57;224.18;;;53.67;;
55545;SDS011;44768;50.298;127.520;2023-02-11T01:36:58;120.75;;;31.67;;
55545;SDS011;44768;50.298;127.520;2023-02-11T01:42:00;73.32;;;19.23;;
55545;SDS011;44768;50.298;127.520;2023-02-11T01:47:01;54.75;;;14.68;;
55545;SDS011;44768;50.298;127.520;2023-02-11T01:52:09;39.70;;;12.73;;
55545;SDS011;44768;50.298;127.520;2023-02-11T01:57:12;53.10;;;13.30;;
55545;SDS011;44768;50.298;127.520;2023-02-11T02:02:36;34.25;;;10.88;;
55545;SDS011;44768;50.298;127.520;2023-02-11T02:07:44;55.80;;;12.75;;
55545;SDS011;44768;50.298;127.520;2023-02-11T02:12:46;27.65;;;10.05;;
55545;SDS011;44768;50.298;127.520;2023-02-11T02:23:44;35.17;;;8.40;;
55545;SDS011;44768;50.298;127.520;2023-02-11T02:33:32;33.47;;;11.00;;
55545;SDS011;44768;50.298;127.520;2023-02-11T02:38:36;21.85;;;9.40;;
55545;SDS011;44768;50.298;127.520;2023-02-11T02:43:40;29.50;;;12.23;;
55545;SDS011;44768;50.298;127.520;2023-02-11T02:48:42;27.25;;;9.52;;
55545;SDS011;44768;50.298;127.520;2023-02-11T02:59:21;19.95;;;7.75;;
55545;SDS011;44768;50.298;127.520;2023-02-11T03:10:11;18.02;;;7.57;;
55545;SDS011;44768;50.298;127.520;2023-02-11T03:14:52;13.93;;;6.43;;
55545;SDS011;44768;50.298;127.520;2023-02-11T03:19:54;18.70;;;6.57;;
55545;SDS011;44768;50.298;127.520;2023-02-11T03:24:56;12.30;;;5.85;;
55545;SDS011;44768;50.298;127.520;2023-02-11T03:30:00;12.02;;;5.70;;
55545;SDS011;44768;50.298;127.520;2023-02-11T03:40:10;12.15;;;5.50;;
55545;SDS011;44768;50.298;127.520;2023-02-11T03:45:14;10.07;;;5.68;;
55545;SDS011;44768;50.298;127.520;2023-02-11T03:50:17;9.68;;;4.75;;
55545;SDS011;44768;50.298;127.520;2023-02-11T03:55:20;12.00;;;5.00;;
55545;SDS011;44768;50.298;127.520;2023-02-11T04:00:32;10.32;;;5.03;;
55545;SDS011;44768;50.298;127.520;2023-02-11T04:05:34;10.05;;;4.78;;
55545;SDS011;44768;50.298;127.520;2023-02-11T04:10:37;8.35;;;4.72;;
55545;SDS011;44768;50.298;127.520;2023-02-11T04:15:38;8.07;;;4.50;;
55545;SDS011;44768;50.298;127.520;2023-02-11T04:20:40;8.32;;;4.15;;
55545;SDS011;44768;50.298;127.520;2023-02-11T04:25:42;15.45;;;4.57;;
55545;SDS011;44768;50.298;127.520;2023-02-11T04:30:44;11.05;;;4.60;;
55545;SDS011;44768;50.298;127.520;2023-02-11T04:35:45;8.52;;;4.28;;
55545;SDS011;44768;50.298;127.520;2023-02-11T04:40:46;9.82;;;4.85;;
55545;SDS011;44768;50.298;127.520;2023-02-11T04:45:47;20.25;;;4.82;;
55545;SDS011;44768;50.298;127.520;2023-02-11T04:50:48;13.82;;;4.22;;
55545;SDS011;44768;50.298;127.520;2023-02-11T04:55:50;10.30;;;3.90;;
55545;SDS011;44768;50.298;127.520;2023-02-11T05:00:52;20.60;;;4.00;;
55545;SDS011;44768;50.298;127.520;2023-02-11T05:05:53;6.45;;;3.63;;
55545;SDS011;44768;50.298;127.520;2023-02-11T05:10:55;11.05;;;4.28;;
55545;SDS011;44768;50.298;127.520;2023-02-11T05:15:57;9.48;;;3.92;;
55545;SDS011;44768;50.298;127.520;2023-02-11T05:21:04;6.18;;;3.60;;
55545;SDS011;44768;50.298;127.520;2023-02-11T05:26:05;5.60;;;3.40;;
55545;SDS011;44768;50.298;127.520;2023-02-11T05:31:07;6.03;;;3.70;;
55545;SDS011;44768;50.298;127.520;2023-02-11T05:36:09;4.60;;;3.53;;
55545;SDS011;44768;50.298;127.520;2023-02-11T05:41:11;4.85;;;3.40;;
55545;SDS011;44768;50.298;127.520;2023-02-11T05:46:12;6.95;;;3.50;;
55545;SDS011;44768;50.298;127.520;2023-02-11T05:51:13;5.15;;;3.20;;
55545;SDS011;44768;50.298;127.520;2023-02-11T05:56:15;4.78;;;3.38;;
55545;SDS011;44768;50.298;127.520;2023-02-11T06:01:18;3.97;;;3.00;;
55545;SDS011;44768;50.298;127.520;2023-02-11T06:06:20;5.18;;;3.50;;
55545;SDS011;44768;50.298;127.520;2023-02-11T06:11:21;3.92;;;3.05;;
55545;SDS011;44768;50.298;127.520;2023-02-11T06:16:22;4.47;;;3.05;;
55545;SDS011;44768;50.298;127.520;2023-02-11T06:21:24;6.18;;;2.78;;
55545;SDS011;44768;50.298;127.520;2023-02-11T06:26:25;4.25;;;2.80;;
55545;SDS011;44768;50.298;127.520;2023-02-11T06:31:27;6.78;;;3.08;;
55545;SDS011;44768;50.298;127.520;2023-02-11T06:36:28;8.90;;;3.55;;
55545;SDS011;44768;50.298;127.520;2023-02-11T06:41:29;11.10;;;6.72;;
55545;SDS011;44768;50.298;127.520;2023-02-11T06:46:30;11.90;;;5.32;;
55545;SDS011;44768;50.298;127.520;2023-02-11T06:51:31;8.23;;;4.95;;
55545;SDS011;44768;50.298;127.520;2023-02-11T06:56:33;10.05;;;4.25;;
55545;SDS011;44768;50.298;127.520;2023-02-11T07:01:36;10.52;;;4.35;;
55545;SDS011;44768;50.298;127.520;2023-02-11T07:06:38;8.70;;;4.25;;
55545;SDS011;44768;50.298;127.520;2023-02-11T07:11:39;7.18;;;3.97;;
55545;SDS011;44768;50.298;127.520;2023-02-11T07:16:40;9.02;;;4.10;;
55545;SDS011;44768;50.298;127.520;2023-02-11T07:21:41;6.35;;;3.70;;
55545;SDS011;44768;50.298;127.520;2023-02-11T07:26:42;10.30;;;4.20;;
55545;SDS011;44768;50.298;127.520;2023-02-11T07:31:44;6.03;;;3.80;;
55545;SDS011;44768;50.298;127.520;2023-02-11T07:36:45;7.65;;;3.75;;
55545;SDS011;44768;50.298;127.520;2023-02-11T07:41:48;5.50;;;3.67;;
55545;SDS011;44768;50.298;127.520;2023-02-11T07:46:49;7.68;;;3.53;;
55545;SDS011;44768;50.298;127.520;2023-02-11T07:51:50;6.03;;;3.60;;
55545;SDS011;44768;50.298;127.520;2023-02-11T07:56:52;5.97;;;3.40;;
55545;SDS011;44768;50.298;127.520;2023-02-11T08:01:53;6.55;;;3.50;;
55545;SDS011;44768;50.298;127.520;2023-02-11T08:06:55;5.00;;;3.60;;
55545;SDS011;44768;50.298;127.520;2023-02-11T08:11:58;6.85;;;3.45;;
55545;SDS011;44768;50.298;127.520;2023-02-11T08:16:59;10.52;;;3.53;;
55545;SDS011;44768;50.298;127.520;2023-02-11T08:22:01;10.93;;;3.55;;
55545;SDS011;44768;50.298;127.520;2023-02-11T08:27:02;12.48;;;3.65;;
55545;SDS011;44768;50.298;127.520;2023-02-11T08:32:03;10.60;;;3.88;;
55545;SDS011;44768;50.298;127.520;2023-02-11T08:37:04;10.05;;;3.40;;
55545;SDS011;44768;50.298;127.520;2023-02-11T08:42:05;11.38;;;3.47;;
55545;SDS011;44768;50.298;127.520;2023-02-11T08:47:07;9.32;;;3.40;;
55545;SDS011;44768;50.298;127.520;2023-02-11T08:52:08;8.20;;;3.50;;
55545;SDS011;44768;50.298;127.520;2023-02-11T08:57:09;8.50;;;3.88;;
55545;SDS011;44768;50.298;127.520;2023-02-11T09:02:11;7.90;;;3.80;;
55545;SDS011;44768;50.298;127.520;2023-02-11T09:07:13;7.95;;;3.88;;
55545;SDS011;44768;50.298;127.520;2023-02-11T09:12:14;47.50;;;15.93;;
55545;SDS011;44768;50.298;127.520;2023-02-11T09:17:16;41.17;;;12.18;;
55545;SDS011;44768;50.298;127.520;2023-02-11T09:22:17;43.42;;;13.27;;
55545;SDS011;44768;50.298;127.520;2023-02-11T09:27:18;35.55;;;13.25;;
55545;SDS011;44768;50.298;127.520;2023-02-11T09:32:19;84.78;;;24.58;;
55545;SDS011;44768;50.298;127.520;2023-02-11T09:37:20;74.95;;;23.05;;
55545;SDS011;44768;50.298;127.520;2023-02-11T09:47:42;54.00;;;15.35;;
55545;SDS011;44768;50.298;127.520;2023-02-11T09:52:47;35.08;;;13.63;;
55545;SDS011;44768;50.298;127.520;2023-02-11T09:57:50;40.95;;;12.93;;
55545;SDS011;44768;50.298;127.520;2023-02-11T10:08:30;32.45;;;11.55;;
55545;SDS011;44768;50.298;127.520;2023-02-11T10:13:42;32.83;;;10.80;;
55545;SDS011;44768;50.298;127.520;2023-02-11T10:23:47;29.55;;;10.55;;
55545;SDS011;44768;50.298;127.520;2023-02-11T10:28:58;26.27;;;9.75;;
55545;SDS011;44768;50.298;127.520;2023-02-11T10:34:08;31.10;;;9.32;;
55545;SDS011;44768;50.298;127.520;2023-02-11T10:39:27;25.55;;;9.70;;
55545;SDS011;44768;50.298;127.520;2023-02-11T10:49:37;26.83;;;9.60;;
55545;SDS011;44768;50.298;127.520;2023-02-11T10:54:40;23.27;;;9.63;;
55545;SDS011;44768;50.298;127.520;2023-02-11T10:59:43;26.85;;;9.43;;
55545;SDS011;44768;50.298;127.520;2023-02-11T11:04:57;27.95;;;9.10;;
55545;SDS011;44768;50.298;127.520;2023-02-11T11:15:30;25.60;;;8.00;;
55545;SDS011;44768;50.298;127.520;2023-02-11T11:20:31;19.00;;;8.10;;
55545;SDS011;44768;50.298;127.520;2023-02-11T11:25:36;17.05;;;7.68;;
55545;SDS011;44768;50.298;127.520;2023-02-11T11:30:40;17.83;;;8.20;;
55545;SDS011;44768;50.298;127.520;2023-02-11T11:35:42;20.02;;;8.00;;
55545;SDS011;44768;50.298;127.520;2023-02-11T11:40:44;18.48;;;8.10;;
55545;SDS011;44768;50.298;127.520;2023-02-11T11:45:52;19.20;;;8.90;;
55545;SDS011;44768;50.298;127.520;2023-02-11T11:50:59;16.73;;;8.10;;
55545;SDS011;44768;50.298;127.520;2023-02-11T11:56:03;13.98;;;7.70;;
55545;SDS011;44768;50.298;127.520;2023-02-11T12:06:40;12.30;;;8.03;;
55545;SDS011;44768;50.298;127.520;2023-02-11T12:17:02;21.95;;;11.65;;
55545;SDS011;44768;50.298;127.520;2023-02-11T12:32:53;32.17;;;17.30;;
55545;SDS011;44768;50.298;127.520;2023-02-11T12:38:17;35.65;;;18.77;;
55545;SDS011;44768;50.298;127.520;2023-02-11T12:43:31;43.72;;;20.00;;
55545;SDS011;44768;50.298;127.520;2023-02-11T12:48:38;35.70;;;18.70;;
55545;SDS011;44768;50.298;127.520;2023-02-11T12:58:46;43.13;;;19.95;;
55545;SDS011;44768;50.298;127.520;2023-02-11T13:03:53;39.28;;;19.15;;
55545;SDS011;44768;50.298;127.520;2023-02-11T13:08:58;40.45;;;19.85;;
55545;SDS011;44768;50.298;127.520;2023-02-11T13:14:02;36.50;;;18.73;;
55545;SDS011;44768;50.298;127.520;2023-02-11T13:35:24;27.02;;;15.20;;
55545;SDS011;44768;50.298;127.520;2023-02-11T13:39:59;28.70;;;15.50;;
55545;SDS011;44768;50.298;127.520;2023-02-11T13:45:00;23.75;;;14.02;;
55545;SDS011;44768;50.298;127.520;2023-02-11T13:50:02;24.52;;;13.88;;
55545;SDS011;44768;50.298;127.520;2023-02-11T13:55:19;26.98;;;13.77;;
55545;SDS011;44768;50.298;127.520;2023-02-11T14:05:35;32.75;;;13.95;;
55545;SDS011;44768;50.298;127.520;2023-02-11T14:16:07;27.02;;;12.10;;
55545;SDS011;44768;50.298;127.520;2023-02-11T14:21:13;27.05;;;11.98;;
55545;SDS011;44768;50.298;127.520;2023-02-11T14:31:18;32.67;;;11.23;;
55545;SDS011;44768;50.298;127.520;2023-02-11T14:41:45;22.80;;;10.90;;
55545;SDS011;44768;50.298;127.520;2023-02-11T14:46:47;27.48;;;10.60;;
55545;SDS011;44768;50.298;127.520;2023-02-11T14:51:49;25.58;;;10.23;;
55545;SDS011;44768;50.298;127.520;2023-02-11T14:57:06;19.85;;;10.93;;
55545;SDS011;44768;50.298;127.520;2023-02-11T15:02:31;21.27;;;10.65;;
55545;SDS011;44768;50.298;127.520;2023-02-11T15:07:30;18.52;;;10.43;;
55545;SDS011;44768;50.298;127.520;2023-02-11T15:12:32;17.27;;;10.40;;
55545;SDS011;44768;50.298;127.520;2023-02-11T15:17:35;22.88;;;10.75;;
55545;SDS011;44768;50.298;127.520;2023-02-11T15:22:36;20.48;;;10.05;;
55545;SDS011;44768;50.298;127.520;2023-02-11T15:27:41;15.68;;;10.05;;
55545;SDS011;44768;50.298;127.520;2023-02-11T15:32:44;17.25;;;10.43;;
55545;SDS011;44768;50.298;127.520;2023-02-11T15:37:47;21.13;;;9.77;;
55545;SDS011;44768;50.298;127.520;2023-02-11T15:42:55;16.20;;;8.98;;
55545;SDS011;44768;50.298;127.520;2023-02-11T15:53:21;18.55;;;9.45;;
55545;SDS011;44768;50.298;127.520;2023-02-11T15:58:23;15.73;;;9.10;;
55545;SDS011;44768;50.298;127.520;2023-02-11T16:03:25;22.63;;;9.90;;
55545;SDS011;44768;50.298;127.520;2023-02-11T16:08:28;16.90;;;9.30;;
55545;SDS011;44768;50.298;127.520;2023-02-11T16:13:32;14.32;;;9.32;;
55545;SDS011;44768;50.298;127.520;2023-02-11T16:18:43;14.40;;;9.30;;
55545;SDS011;44768;50.298;127.520;2023-02-11T16:23:52;15.70;;;9.02;;
55545;SDS011;44768;50.298;127.520;2023-02-11T16:29:09;16.52;;;9.65;;
55545;SDS011;44768;50.298;127.520;2023-02-11T16:34:15;16.73;;;9.02;;
55545;SDS011;44768;50.298;127.520;2023-02-11T16:39:17;15.27;;;10.82;;
55545;SDS011;44768;50.298;127.520;2023-02-11T16:44:21;14.82;;;9.68;;
55545;SDS011;44768;50.298;127.520;2023-02-11T16:49:33;16.42;;;9.68;;
55545;SDS011;44768;50.298;127.520;2023-02-11T16:54:35;13.95;;;9.88;;
55545;SDS011;44768;50.298;127.520;2023-02-11T16:59:36;16.67;;;11.15;;
55545;SDS011;44768;50.298;127.520;2023-02-11T17:04:37;14.75;;;10.30;;
55545;SDS011;44768;50.298;127.520;2023-02-11T17:09:39;17.77;;;10.90;;
55545;SDS011;44768;50.298;127.520;2023-02-11T17:14:41;14.93;;;10.35;;
55545;SDS011;44768;50.298;127.520;2023-02-11T17:19:42;15.70;;;11.32;;
55545;SDS011;44768;50.298;127.520;2023-02-11T17:24:43;15.07;;;10.40;;
55545;SDS011;44768;50.298;127.520;2023-02-11T17:29:45;13.63;;;10.02;;
55545;SDS011;44768;50.298;127.520;2023-02-11T17:34:46;14.93;;;10.63;;
55545;SDS011;44768;50.298;127.520;2023-02-11T17:39:47;14.75;;;10.27;;
55545;SDS011;44768;50.298;127.520;2023-02-11T17:44:49;15.32;;;11.18;;
55545;SDS011;44768;50.298;127.520;2023-02-11T17:49:50;14.25;;;10.73;;
55545;SDS011;44768;50.298;127.520;2023-02-11T17:54:51;15.48;;;10.20;;
55545;SDS011;44768;50.298;127.520;2023-02-11T17:59:52;13.15;;;10.07;;
55545;SDS011;44768;50.298;127.520;2023-02-11T18:04:53;15.63;;;10.50;;
55545;SDS011;44768;50.298;127.520;2023-02-11T18:09:57;13.77;;;9.60;;
55545;SDS011;44768;50.298;127.520;2023-02-11T18:14:59;14.30;;;10.00;;
55545;SDS011;44768;50.298;127.520;2023-02-11T18:20:00;16.88;;;10.00;;
55545;SDS011;44768;50.298;127.520;2023-02-11T18:25:04;16.83;;;11.10;;
55545;SDS011;44768;50.298;127.520;2023-02-11T18:30:14;13.65;;;10.13;;
55545;SDS011;44768;50.298;127.520;2023-02-11T18:35:18;15.10;;;10.10;;
55545;SDS011;44768;50.298;127.520;2023-02-11T18:40:19;11.57;;;9.55;;
55545;SDS011;44768;50.298;127.520;2023-02-11T18:45:21;14.88;;;9.73;;
55545;SDS011;44768;50.298;127.520;2023-02-11T18:50:23;14.45;;;9.63;;
55545;SDS011;44768;50.298;127.520;2023-02-11T18:55:25;12.85;;;10.27;;
55545;SDS011;44768;50.298;127.520;2023-02-11T19:00:28;12.98;;;9.13;;
55545;SDS011;44768;50.298;127.520;2023-02-11T19:05:31;12.80;;;9.27;;
55545;SDS011;44768;50.298;127.520;2023-02-11T19:10:33;12.15;;;9.27;;
55545;SDS011;44768;50.298;127.520;2023-02-11T19:15:44;14.00;;;9.00;;
55545;SDS011;44768;50.298;127.520;2023-02-11T19:20:45;12.60;;;9.97;;
55545;SDS011;44768;50.298;127.520;2023-02-11T19:25:47;13.35;;;9.85;;
55545;SDS011;44768;50.298;127.520;2023-02-11T19:30:48;13.38;;;8.70;;
55545;SDS011;44768;50.298;127.520;2023-02-11T19:35:49;10.70;;;8.55;;
55545;SDS011;44768;50.298;127.520;2023-02-11T19:40:54;13.10;;;9.18;;
55545;SDS011;44768;50.298;127.520;2023-02-11T19:45:55;14.52;;;8.55;;
55545;SDS011;44768;50.298;127.520;2023-02-11T19:50:57;14.88;;;8.70;;
55545;SDS011;44768;50.298;127.520;2023-02-11T19:56:02;14.18;;;8.88;;
55545;SDS011;44768;50.298;127.520;2023-02-11T20:01:07;10.88;;;8.45;;
55545;SDS011;44768;50.298;127.520;2023-02-11T20:06:12;12.57;;;7.88;;
55545;SDS011;44768;50.298;127.520;2023-02-11T20:11:15;10.75;;;8.18;;
55545;SDS011;44768;50.298;127.520;2023-02-11T20:16:21;13.55;;;7.72;;
55545;SDS011;44768;50.298;127.520;2023-02-11T20:21:26;11.02;;;7.50;;
55545;SDS011;44768;50.298;127.520;2023-02-11T20:26:29;11.10;;;8.05;;
55545;SDS011;44768;50.298;127.520;2023-02-11T20:31:30;9.15;;;7.65;;
55545;SDS011;44768;50.298;127.520;2023-02-11T20:36:32;11.20;;;8.05;;
55545;SDS011;44768;50.298;127.520;2023-02-11T20:41:35;10.48;;;7.45;;
55545;SDS011;44768;50.298;127.520;2023-02-11T20:46:40;9.80;;;7.82;;
55545;SDS011;44768;50.298;127.520;2023-02-11T20:51:42;10.32;;;7.78;;
55545;SDS011;44768;50.298;127.520;2023-02-11T20:56:43;9.68;;;7.70;;
55545;SDS011;44768;50.298;127.520;2023-02-11T21:01:46;9.90;;;7.53;;
55545;SDS011;44768;50.298;127.520;2023-02-11T21:06:48;9.07;;;7.43;;
55545;SDS011;44768;50.298;127.520;2023-02-11T21:11:50;9.38;;;7.28;;
55545;SDS011;44768;50.298;127.520;2023-02-11T21:16:52;9.35;;;7.43;;
55545;SDS011;44768;50.298;127.520;2023-02-11T21:21:54;13.50;;;8.00;;
55545;SDS011;44768;50.298;127.520;2023-02-11T21:26:56;9.98;;;8.00;;
55545;SDS011;44768;50.298;127.520;2023-02-11T21:31:58;10.60;;;7.78;;
55545;SDS011;44768;50.298;127.520;2023-02-11T21:37:00;9.98;;;7.32;;
55545;SDS011;44768;50.298;127.520;2023-02-11T21:42:01;9.80;;;7.30;;
55545;SDS011;44768;50.298;127.520;2023-02-11T21:47:02;11.00;;;7.78;;
55545;SDS011;44768;50.298;127.520;2023-02-11T21:52:03;10.70;;;7.18;;
55545;SDS011;44768;50.298;127.520;2023-02-11T21:57:05;8.95;;;7.10;;
55545;SDS011;44768;50.298;127.520;2023-02-11T22:02:07;11.20;;;7.20;;
55545;SDS011;44768;50.298;127.520;2023-02-11T22:07:08;10.13;;;7.40;;
55545;SDS011;44768;50.298;127.520;2023-02-11T22:12:09;10.40;;;7.50;;
55545;SDS011;44768;50.298;127.520;2023-02-11T22:17:11;10.18;;;7.75;;
55545;SDS011;44768;50.298;127.520;2023-02-11T22:22:13;8.50;;;7.00;;
55545;SDS011;44768;50.298;127.520;2023-02-11T22:27:17;9.85;;;7.40;;
55545;SDS011;44768;50.298;127.520;2023-02-11T22:32:19;9.60;;;7.03;;
55545;SDS011;44768;50.298;127.520;2023-02-11T22:37:21;9.40;;;6.97;;
55545;SDS011;44768;50.298;127.520;2023-02-11T22:42:22;11.07;;;6.95;;
55545;SDS011;44768;50.298;127.520;2023-02-11T22:47:23;10.45;;;7.30;;
55545;SDS011;44768;50.298;127.520;2023-02-11T22:52:24;10.00;;;7.30;;
55545;SDS011;44768;50.298;127.520;2023-02-11T22:57:26;14.05;;;7.13;;
55545;SDS011;44768;50.298;127.520;2023-02-11T23:02:27;9.80;;;7.60;;
55545;SDS011;44768;50.298;127.520;2023-02-11T23:07:28;10.18;;;7.78;;
55545;SDS011;44768;50.298;127.520;2023-02-11T23:12:29;9.70;;;7.57;;
55545;SDS011;44768;50.298;127.520;2023-02-11T23:17:31;12.45;;;6.93;;
55545;SDS011;44768;50.298;127.520;2023-02-11T23:22:33;12.85;;;7.20;;
55545;SDS011;44768;50.298;127.520;2023-02-11T23:27:34;9.88;;;7.00;;
55545;SDS011;44768;50.298;127.520;2023-02-11T23:32:37;8.32;;;6.53;;
55545;SDS011;44768;50.298;127.520;2023-02-11T23:37:39;11.05;;;7.40;;
55545;SDS011;44768;50.298;127.520;2023-02-11T23:42:40;9.02;;;6.90;;
55545;SDS011;44768;50.298;127.520;2023-02-11T23:47:41;8.95;;;6.90;;
55545;SDS011;44768;50.298;127.520;2023-02-11T23:52:43;12.90;;;7.25;;
55545;SDS011;44768;50.298;127.520;2023-02-11T23:57:44;10.13;;;7.60;;
